Latest Coastal Weather Observations for Port Hedland

IDW60701

Issued at 6:43 am WST Tuesday 30 May 2017 (issued every 10 minutes, with the page automatically refreshed every 10 minutes)

About coastal observations | Map of coastal stations | Coastal observations for WA | Marine services | Other Formats
Station Details ID: 004032 Name: PORT HEDLAND AIRPORT Lat: -20.37 Lon: 118.63 Height: 6.4 m
Data from the previous 72 hours. | See also: Recent months at Port Hedland
Date/Time
WST
Temp
°C
Wind Pressure Rain since
9am
mm
Weather Cloud Vis
km
Sea
Height
m
Swell
Dir  Spd
kts
Gust
kts
hPa Trend Height
m
Period
s
Dir
30/06:30am 16.6 S 8 11 1017.0 - 0.0 - - 10 - - - -
30/06:00am 16.9 S 8 11 1016.5 - 0.0 - - 10 - - - -
30/05:30am 17.1 S 9 11 1016.2 - 0.0 - - - - - - -
30/05:00am 17.6 S 9 12 1016.1 - 0.0 - - - - - - -
30/04:30am 17.8 S 9 11 1016.1 - 0.0 - - - - - - -
30/04:00am 17.4 S 9 11 1016.2 - 0.0 - - - - - - -
30/03:30am 17.9 S 8 10 1016.3 - 0.0 - - - - - - -
30/03:00am 18.1 S 8 9 1016.2 - 0.0 - - - - - - -
30/02:30am 17.8 S 8 10 1016.2 - 0.0 - - - - - - -
30/02:00am 17.7 S 8 10 1016.4 - 0.0 - - - - - - -
30/01:30am 17.7 S 7 9 1016.7 - 0.0 - - - - - - -
30/01:00am 18.1 S 7 8 1016.7 - 0.0 - - - - - - -
30/12:30am 18.3 S 7 9 1016.8 - 0.0 - - - - - - -
30/12:00am 18.4 S 7 9 1016.9 - 0.0 - - - - - - -
 
Date/Time
WST
Temp
°C
Wind Pressure Rain since
9am
mm
Weather Cloud Vis
km
Sea
Height
m
Swell
Dir  Spd
kts
Gust
kts
hPa Trend Height
m
Period
s
Dir
29/11:30pm 18.7 S 7 9 1017.0 - 0.0 - - - - - - -
29/11:00pm 19.3 S 8 10 1017.0 - 0.0 - - - - - - -
29/10:30pm 19.6 S 7 9 1017.1 - 0.0 - - - - - - -
29/10:00pm 19.5 S 6 8 1017.0 - 0.0 - - - - - - -
29/09:30pm 20.8 S 8 10 1016.8 - 0.0 - - - - - - -
29/09:00pm 21.4 S 7 9 1016.5 - 0.0 - - - - - - -
29/08:30pm 21.1 SSE 7 8 1016.3 - 0.0 - - - - - - -
29/08:00pm 21.8 SSE 6 7 1016.1 - 0.0 - - - - - - -
29/07:30pm 23.7 S 6 8 1015.9 - 0.0 - - - - - - -
29/07:00pm 23.4 SW 3 4 1015.9 - 0.0 - - - - - - -
29/06:30pm 23.7 W 2 4 1015.6 - 0.0 - - - - - - -
29/06:00pm 26.0 SSE 5 6 1015.2 - 0.0 - - - - - - -
29/05:30pm 27.8 SSE 5 7 1015.0 - 0.0 - - - - - - -
29/05:00pm 29.2 SSE 7 10 1014.9 - 0.0 - - 10 - - - -
29/04:30pm 30.3 SSE 7 9 1014.6 - 0.0 - - 10 - - - -
29/04:00pm 30.7 SE 8 12 1014.6 - 0.0 - - 10 - - - -
29/03:30pm 30.8 SE 8 11 1014.6 - 0.0 - - 10 - - - -
29/03:00pm 30.7 SE 8 11 1014.7 - 0.0 - - 10 - - - -
29/02:30pm 30.4 SSE 7 11 1014.7 - 0.0 - - 10 - - - -
29/02:00pm 30.6 SE 8 12 1014.7 - 0.0 - - - - - - -
29/01:30pm 30.2 ESE 10 15 1015.0 - 0.0 - - - - - - -
29/01:00pm 29.9 ESE 10 16 1015.2 - 0.0 - - - - - - -
29/12:30pm 29.6 SE 12 17 1015.6 - 0.0 - - 10 - - - -
29/12:00pm 28.6 ESE 11 17 1016.1 - 0.0 - - 10 - - - -
29/11:30am 28.2 ESE 12 17 1016.5 - 0.0 - - 10 - - - -
29/11:00am 28.0 ESE 14 16 1016.8 - 0.0 - - 10 - - - -
29/10:30am 26.9 SE 12 18 1017.3 - 0.0 - - 10 - - - -
29/10:00am 25.6 ESE 14 19 1017.6 - 0.0 - - 10 - - - -
29/09:30am 24.7 ESE 15 20 1017.9 - 0.0 - - 10 - - - -
29/09:00am 23.3 SE 14 19 1017.8 R 0.0 Fine Mostly clear 30 - - - -
29/08:30am 21.1 SSE 11 16 1017.8 - 0.0 - - 10 - - - -
29/08:00am 19.1 SSE 11 14 1017.8 - 0.0 - - - - - - -
29/07:30am 17.5 S 10 13 1017.5 - 0.0 - - - - - - -
29/07:00am 16.3 S 7 10 1017.3 - 0.0 - - 10 - - - -
29/06:30am 16.3 S 7 10 1016.9 - 0.0 - - 10 - - - -
29/06:00am 16.3 S 9 12 1016.4 - 0.0 - - 10 - - - -
29/05:30am 16.1 S 9 12 1016.4 - 0.0 - - - - - - -
29/05:00am 16.2 S 7 9 1016.4 - 0.0 - - - - - - -
29/04:30am 16.6 S 7 8 1016.4 - 0.0 - - - - - - -
29/04:00am 16.9 S 7 10 1016.3 - 0.0 - - - - - - -
29/03:30am 17.2 S 7 9 1016.3 - 0.0 - - - - - - -
29/03:00am 17.4 S 7 9 1016.2 - 0.0 - - - - - - -
29/02:30am 17.6 S 7 11 1016.2 - 0.0 - - - - - - -
29/02:00am 17.7 S 8 9 1016.3 - 0.0 - - - - - - -
29/01:30am 18.2 S 6 8 1016.2 - 0.0 - - - - - - -
29/01:00am 18.5 S 7 10 1016.2 - 0.0 - - - - - - -
29/12:30am 19.1 S 7 10 1016.2 - 0.0 - - - - - - -
29/12:00am 19.5 S 8 10 1016.1 - 0.0 - - - - - - -
 
Date/Time
WST
Temp
°C
Wind Pressure Rain since
9am
mm
Weather Cloud Vis
km
Sea
Height
m
Swell
Dir  Spd
kts
Gust
kts
hPa Trend Height
m
Period
s
Dir
28/11:30pm 19.8 S 8 11 1016.3 - 0.0 - - - - - - -
28/11:00pm 20.2 S 8 11 1016.4 - 0.0 - - - - - - -
28/10:30pm 20.0 SSE 7 8 1016.6 - 0.0 - - - - - - -
28/10:00pm 21.0 SSE 6 8 1016.6 - 0.0 - - - - - - -
28/09:30pm 21.9 S 7 9 1016.8 - 0.0 - - - - - - -
28/09:00pm 22.5 SSE 7 8 1017.0 - 0.0 - - - - - - -
28/08:30pm 23.6 SSE 8 10 1016.7 - 0.0 - - - - - - -
28/08:00pm 23.4 ESE 6 8 1016.4 - 0.0 - - - - - - -
28/07:30pm 23.4 ESE 7 9 1016.0 - 0.0 - - - - - - -
28/07:00pm 25.6 SE 8 10 1015.6 - 0.0 - - - - - - -
28/06:30pm 26.4 ESE 8 10 1015.1 - 0.0 - - - - - - -
28/06:00pm 27.7 SE 9 12 1014.4 - 0.0 - - - - - - -
28/05:30pm 29.0 SE 8 11 1014.0 - 0.0 - - - - - - -
28/05:00pm 30.2 SE 9 13 1013.7 - 0.0 - - - - - - -
28/04:30pm 30.9 SE 9 13 1013.5 - 0.0 - - - - - - -
28/04:00pm 31.4 SE 9 14 1013.3 - 0.0 - - - - - - -
28/03:30pm 31.4 SSE 9 13 1013.2 - 0.0 - - - - - - -
28/03:00pm 31.6 SSE 10 13 1013.2 - 0.0 - - - - - - -
28/02:30pm 31.7 ESE 9 13 1013.2 - 0.0 - - - - - - -
28/02:00pm 31.8 ESE 10 15 1013.1 - 0.0 - - - - - - -
28/01:30pm 32.2 ESE 11 15 1013.1 - 0.0 - - - - - - -
28/01:00pm 31.4 ESE 10 14 1013.3 - 0.0 - - - - - - -
28/12:30pm 30.9 ESE 10 16 1013.9 - 0.0 - - - - - - -
28/12:00pm 30.1 ESE 11 15 1014.4 - 0.0 - - - - - - -
28/11:30am 30.0 ESE 11 18 1014.8 - 0.0 - - - - - - -
28/11:00am 29.4 ESE 12 18 1015.4 - 0.0 - - - - - - -
28/10:30am 28.9 SE 13 18 1015.7 - 0.0 - - - - - - -
28/10:00am 28.1 SSE 11 14 1016.0 - 0.0 - - - - - - -
28/09:30am 27.1 SSE 11 15 1015.9 - 0.0 - - - - - - -
28/09:00am 26.3 SSE 10 12 1015.9 - 0.0 - - - - - - -
28/08:30am 24.5 SSE 8 11 1015.5 - 0.0 - - - - - - -
28/08:00am 21.2 S 6 9 1015.2 - 0.0 - - - - - - -
28/07:30am 20.0 SSE 6 8 1014.7 - 0.0 - - - - - - -
28/07:00am 19.2 S 5 8 1014.6 - 0.0 - - - - - - -
28/06:30am 18.9 SSE 6 7 1014.4 - 0.0 - - - - - - -
28/06:00am 18.6 SSE 4 6 1014.3 - 0.0 - - - - - - -
28/05:30am 17.8 SSW 5 7 1013.9 - 0.0 - - - - - - -
28/05:00am 18.7 S 5 6 1013.7 - 0.0 - - - - - - -
28/04:30am 18.7 S 3 5 1013.5 - 0.0 - - - - - - -
28/04:00am 18.7 S 7 8 1013.3 - 0.0 - - - - - - -
28/03:30am 18.2 CALM 0 0 1013.5 - 0.0 - - - - - - -
28/03:00am 18.7 ESE 3 6 1013.7 - 0.0 - - - - - - -
28/02:30am 19.1 SSE 4 5 1013.9 - 0.0 - - - - - - -
28/02:00am 19.5 SE 3 8 1014.1 - 0.0 - - - - - - -
28/01:30am 19.4 NW 2 6 1013.8 - 0.0 - - - - - - -
28/01:00am 20.2 E 3 4 1013.8 - 0.0 - - - - - - -
28/12:30am 20.4 E 6 10 1014.2 - 0.0 - - - - - - -
28/12:00am 22.7 S 8 9 1014.0 - 0.0 - - - - - - -
 
Date/Time
WST
Temp
°C
Wind Pressure Rain since
9am
mm
Weather Cloud Vis
km
Sea
Height
m
Swell
Dir  Spd
kts
Gust
kts
hPa Trend Height
m
Period
s
Dir
27/11:30pm 22.7 S 5 6 1013.9 - 0.0 - - - - - - -
27/11:00pm 21.9 W 5 6 1014.0 - 0.0 - Partly cloudy - - - - -
27/10:30pm 21.8 W 5 6 1014.0 - 0.0 - - - - - - -
27/10:00pm 23.2 S 4 7 1014.3 - 0.0 - - - - - - -
27/09:30pm 23.6 S 10 11 1014.1 - 0.0 - - - - - - -
27/09:00pm 23.5 N 6 9 1014.0 - 0.0 - - - - - - -
27/08:30pm 22.4 WSW 7 8 1013.5 - 0.0 - - - - - - -
27/08:00pm 23.1 SW 5 6 1013.3 - 0.0 - - - - - - -
27/07:30pm 23.6 W 7 8 1013.0 - 0.0 - - - - - - -
27/07:00pm 24.0 W 6 7 1012.7 - 0.0 - - - - - - -
27/06:30pm 24.9 W 6 7 1012.6 - 0.0 - Partly cloudy - - - - -
27/06:00pm 25.9 WNW 7 9 1012.2 - 0.0 - Mostly clear - - - - -
27/05:30pm 27.4 NW 7 9 1011.9 - 0.0 - - - - - - -
27/05:00pm 30.0 NW 7 8 1011.6 - 0.0 - - - - - - -
27/04:30pm 30.9 NNW 9 11 1011.4 - 0.0 - - - - - - -
27/04:00pm 31.6 NNW 8 10 1011.4 - 0.0 - - - - - - -
27/03:30pm 31.9 N 10 14 1011.4 - 0.0 - - - - - - -
27/03:00pm 33.1 N 8 9 1011.4 - 0.0 - - - - - - -
27/02:30pm 33.4 N 7 9 1011.4 - 0.0 - - - - - - -
27/02:00pm 33.1 N 8 9 1011.6 - 0.0 - - - - - - -
27/01:30pm 32.9 NNE 8 10 1011.8 - 0.0 - - - - - - -
27/01:00pm 32.5 NNE 8 10 1012.2 - 0.0 - - - - - - -
27/12:30pm 32.1 NNE 9 13 1012.6 - 0.0 - - - - - - -
27/12:00pm 32.1 NNE 9 14 1012.9 - 0.0 - - - - - - -
27/11:30am 33.0 SSE 5 8 1013.1 - 0.0 - - - - - - -
27/11:00am 32.5 SE 6 9 1013.5 - 0.0 - - - - - - -
27/10:30am 31.6 ESE 5 7 1013.7 - 0.0 - - - - - - -
27/10:00am 30.8 E 5 9 1014.0 - 0.0 - - - - - - -
27/09:30am 29.3 ESE 5 8 1014.3 - 0.0 - - - - - - -
27/09:00am 28.3 E 7 9 1014.3 - 0.0 - - - - - - -
27/08:30am 26.4 SE 6 8 1014.1 - 0.0 - - - - - - -
27/08:00am 24.4 ESE 4 5 1014.0 - 0.0 - - - - - - -
27/07:30am 22.6 SE 4 5 1013.9 - 0.0 - - - - - - -
27/07:00am 21.7 SE 6 8 1013.7 - 0.0 - - - - - - -

Other Formats:

Comma delimited format used in spreadsheet applications
http://www.bom.gov.au/fwo/IDW60701/IDW60701.94312.axf

JavaScript Object Notation format (JSON) in row-major order
http://www.bom.gov.au/fwo/IDW60701/IDW60701.94312.json